Time;durP1;ratioP1;P1;durP2;ratioP2;P2;SDS_P1;SDS_P2;PMS_P1;PMS_P2;Temp;Humidity;BMP_temperature;BMP_pressure;BME280_temperature;BME280_humidity;BME280_pressure;Samples;Min_cycle;Max_cycle;Signal;HPM_P1;HPM_P2
2021/03/26 00:00:16;;;;;;;36.27;19.83;;;6.60;99.90;;;;;;4916218;29;20197;-61
2021/03/26 00:02:44;;;;;;;39.13;19.90;;;6.60;99.90;;;;;;4913331;29;20271;-61
2021/03/26 00:05:15;;;;;;;38.13;20.97;;;6.50;99.90;;;;;;4913977;29;20186;-61
2021/03/26 00:07:45;;;;;;;39.67;21.63;;;6.60;99.90;;;;;;4916329;29;20284;-61
2021/03/26 00:10:15;;;;;;;45.03;21.87;;;6.60;99.90;;;;;;4915002;29;20201;-61
2021/03/26 00:12:42;;;;;;;40.60;21.67;;;6.60;99.90;;;;;;4916844;29;20764;-60
2021/03/26 00:15:11;;;;;;;36.53;20.60;;;6.60;99.90;;;;;;4913568;29;20217;-61
2021/03/26 00:17:39;;;;;;;42.50;21.33;;;6.70;99.90;;;;;;4912760;29;20439;-61
2021/03/26 00:20:08;;;;;;;40.83;21.27;;;6.70;99.90;;;;;;4915801;29;20366;-61
2021/03/26 00:22:35;;;;;;;40.77;21.63;;;6.70;99.90;;;;;;4916724;29;20204;-60
2021/03/26 00:25:05;;;;;;;37.00;21.93;;;6.80;99.90;;;;;;4914091;29;20217;-60
2021/03/26 00:27:32;;;;;;;45.00;23.00;;;6.80;99.90;;;;;;4915977;29;20197;-61
2021/03/26 00:30:01;;;;;;;38.97;21.80;;;6.80;99.90;;;;;;4910008;29;20229;-61
2021/03/26 00:32:28;;;;;;;41.67;21.93;;;6.80;99.90;;;;;;4916728;29;20715;-61
2021/03/26 00:35:00;;;;;;;40.87;22.73;;;6.80;99.90;;;;;;4911896;29;20217;-60
2021/03/26 00:37:27;;;;;;;44.40;22.83;;;6.80;99.90;;;;;;4911636;29;20202;-61
2021/03/26 00:39:54;;;;;;;41.60;22.83;;;6.90;99.90;;;;;;4915798;29;20252;-60
2021/03/26 00:42:21;;;;;;;44.33;23.60;;;6.90;99.90;;;;;;4928209;29;20201;-60
2021/03/26 00:44:49;;;;;;;44.40;24.73;;;6.90;99.90;;;;;;4917532;29;20253;-60
2021/03/26 00:47:16;;;;;;;40.87;22.70;;;7.00;99.90;;;;;;4912617;29;20189;-61
2021/03/26 00:49:44;;;;;;;46.37;24.03;;;7.00;99.90;;;;;;4915736;29;20296;-61
2021/03/26 00:52:12;;;;;;;42.83;23.83;;;7.10;99.90;;;;;;4912109;29;20261;-60
2021/03/26 00:54:40;;;;;;;38.97;22.87;;;7.10;99.90;;;;;;4912223;29;20324;-61
2021/03/26 00:57:08;;;;;;;47.77;25.00;;;7.20;99.90;;;;;;4911695;29;20220;-61
2021/03/26 00:59:41;;;;;;;44.47;23.37;;;7.20;99.90;;;;;;4915684;29;20202;-60
2021/03/26 01:02:08;;;;;;;42.63;23.93;;;7.20;99.90;;;;;;4914204;29;20194;-61
2021/03/26 01:04:36;;;;;;;45.60;23.20;;;7.20;99.90;;;;;;4913460;29;20198;-61
2021/03/26 01:07:04;;;;;;;45.30;24.43;;;7.20;99.90;;;;;;4907940;29;20237;-60
2021/03/26 01:09:33;;;;;;;46.40;24.53;;;7.20;99.90;;;;;;4911975;29;20209;-61
2021/03/26 01:12:00;;;;;;;47.23;23.33;;;7.20;99.90;;;;;;4910875;29;20297;-61
2021/03/26 01:14:27;;;;;;;46.23;24.43;;;7.20;99.90;;;;;;4918220;29;20312;-60
2021/03/26 01:16:59;;;;;;;44.37;23.87;;;7.20;99.90;;;;;;4912453;29;20292;-61
2021/03/26 01:19:27;;;;;;;41.10;24.07;;;7.10;99.90;;;;;;4910471;29;20300;-61
2021/03/26 01:21:54;;;;;;;44.50;24.13;;;7.20;99.90;;;;;;4911353;29;20621;-60
2021/03/26 01:24:21;;;;;;;44.00;23.77;;;7.10;99.90;;;;;;4910538;29;20657;-61
2021/03/26 01:26:50;;;;;;;46.50;25.27;;;7.10;99.90;;;;;;4913296;29;20230;-60
2021/03/26 01:29:17;;;;;;;45.40;26.00;;;7.10;99.90;;;;;;4906999;29;20320;-61
2021/03/26 01:31:44;;;;;;;49.87;26.47;;;7.10;99.90;;;;;;4911403;29;20193;-60
2021/03/26 01:34:12;;;;;;;46.90;25.77;;;7.10;99.90;;;;;;4911606;29;20213;-61
2021/03/26 01:36:40;;;;;;;46.60;24.60;;;7.00;99.90;;;;;;4911954;29;20237;-61
2021/03/26 01:39:07;;;;;;;50.47;26.87;;;7.00;99.90;;;;;;4911931;29;20561;-61
2021/03/26 01:41:40;;;;;;;47.40;25.63;;;7.00;99.90;;;;;;4912053;29;20293;-60
2021/03/26 01:44:14;;;;;;;47.10;25.83;;;7.00;99.90;;;;;;4909308;29;20201;-61
2021/03/26 01:46:44;;;;;;;52.80;26.37;;;6.90;99.90;;;;;;4911695;29;20295;-61
2021/03/26 01:49:11;;;;;;;44.50;24.97;;;6.80;99.90;;;;;;4914294;29;20649;-60
2021/03/26 01:51:43;;;;;;;49.37;26.20;;;6.80;99.90;;;;;;4915771;29;20257;-61
2021/03/26 01:54:15;;;;;;;53.03;26.57;;;6.70;99.90;;;;;;4911826;29;20332;-61
2021/03/26 01:56:43;;;;;;;54.00;26.47;;;6.70;99.90;;;;;;4907845;29;20206;-60
2021/03/26 01:59:13;;;;;;;47.60;25.90;;;6.60;99.90;;;;;;4908310;29;20197;-60
2021/03/26 02:01:43;;;;;;;50.13;25.90;;;6.60;99.90;;;;;;4908898;29;20261;-60
2021/03/26 02:04:22;;;;;;;47.77;24.67;;;6.60;99.90;;;;;;4909404;29;20288;-60
2021/03/26 02:06:51;;;;;;;46.93;24.53;;;6.50;99.90;;;;;;4913845;29;20197;-61
2021/03/26 02:09:21;;;;;;;52.47;26.43;;;6.50;99.90;;;;;;4911652;29;20208;-61
2021/03/26 02:11:54;;;;;;;50.50;25.90;;;6.60;99.90;;;;;;4910601;29;20194;-60
2021/03/26 02:14:26;;;;;;;50.00;26.07;;;6.60;99.90;;;;;;4912434;29;20216;-61
2021/03/26 02:16:54;;;;;;;52.50;25.63;;;6.60;99.90;;;;;;4911886;29;20205;-56
2021/03/26 02:19:25;;;;;;;52.37;26.93;;;6.50;99.90;;;;;;4907571;29;20189;-60
2021/03/26 02:21:53;;;;;;;49.30;24.93;;;6.50;99.90;;;;;;4909585;29;20229;-60
2021/03/26 02:24:23;;;;;;;50.97;26.50;;;6.50;99.90;;;;;;4910699;29;20230;-60
2021/03/26 02:26:54;;;;;;;49.03;25.93;;;6.50;99.90;;;;;;4911470;29;20669;-60
2021/03/26 02:29:25;;;;;;;52.40;26.53;;;6.40;99.90;;;;;;4909116;29;20230;-60
2021/03/26 02:31:54;;;;;;;48.53;25.10;;;6.40;99.90;;;;;;4911415;29;20203;-61
2021/03/26 02:34:23;;;;;;;55.90;26.10;;;6.40;99.90;;;;;;4909047;29;20692;-60
2021/03/26 02:36:53;;;;;;;47.07;24.60;;;6.40;99.90;;;;;;4912183;29;20257;-61
2021/03/26 02:39:30;;;;;;;50.87;24.93;;;6.40;99.90;;;;;;4909791;29;20193;-61
2021/03/26 02:42:01;;;;;;;48.77;24.77;;;6.40;99.90;;;;;;4911742;29;20245;-60
2021/03/26 02:44:36;;;;;;;44.93;23.10;;;6.40;99.90;;;;;;4912027;29;20191;-58
2021/03/26 02:47:19;;;;;;;44.90;23.60;;;6.40;99.90;;;;;;4912436;29;20827;-61
2021/03/26 02:49:54;;;;;;;46.13;22.87;;;6.40;99.90;;;;;;4908936;29;20196;-61
2021/03/26 02:52:30;;;;;;;46.23;22.53;;;6.40;99.90;;;;;;4903971;29;20220;-61
2021/03/26 02:55:08;;;;;;;43.00;22.40;;;6.40;99.90;;;;;;4911695;29;20264;-61
2021/03/26 02:57:39;;;;;;;47.07;21.40;;;6.40;99.90;;;;;;4915512;29;20212;-61
2021/03/26 03:00:14;;;;;;;37.37;21.03;;;6.50;99.90;;;;;;4915229;29;20629;-61
2021/03/26 03:02:43;;;;;;;41.87;21.63;;;6.60;99.90;;;;;;4913741;29;20236;-60
2021/03/26 03:05:16;;;;;;;41.90;20.40;;;6.70;99.90;;;;;;4912799;29;20278;-59
2021/03/26 03:07:49;;;;;;;37.37;19.53;;;6.70;99.90;;;;;;4915621;29;20208;-60
2021/03/26 03:10:25;;;;;;;39.80;20.33;;;6.70;99.90;;;;;;4918384;29;20232;-60
2021/03/26 03:13:01;;;;;;;43.07;20.67;;;6.70;99.90;;;;;;4912751;29;20681;-61
2021/03/26 03:15:30;;;;;;;33.90;18.70;;;6.70;99.90;;;;;;4915084;29;20307;-60
2021/03/26 03:18:05;;;;;;;34.60;18.17;;;6.80;99.90;;;;;;4922016;29;20197;-60
2021/03/26 03:20:40;;;;;;;35.60;18.70;;;6.80;99.90;;;;;;4916178;29;20296;-61
2021/03/26 03:23:13;;;;;;;33.03;19.00;;;6.80;99.90;;;;;;4914681;29;20685;-61
2021/03/26 03:25:43;;;;;;;34.60;18.67;;;6.80;99.90;;;;;;4918488;29;20236;-60
2021/03/26 03:28:23;;;;;;;36.67;19.00;;;6.80;99.90;;;;;;4908365;29;20296;-60
2021/03/26 03:30:59;;;;;;;36.97;20.00;;;6.80;99.90;;;;;;4912058;29;20232;-61
2021/03/26 03:33:38;;;;;;;36.40;18.47;;;6.80;99.90;;;;;;4916806;29;20291;-60
2021/03/26 03:36:11;;;;;;;42.70;19.13;;;6.70;99.90;;;;;;4913143;29;20213;-60
2021/03/26 03:38:53;;;;;;;30.27;19.20;;;6.70;99.90;;;;;;4912754;29;20211;-60
2021/03/26 03:41:30;;;;;;;31.50;18.73;;;6.60;99.90;;;;;;4912875;29;20205;-59
2021/03/26 03:44:10;;;;;;;36.17;19.87;;;6.60;99.90;;;;;;4935000;29;20296;-60
2021/03/26 03:46:44;;;;;;;34.33;19.30;;;6.60;99.90;;;;;;4914134;29;20197;-62
2021/03/26 03:49:17;;;;;;;38.47;20.07;;;6.60;99.90;;;;;;4912662;29;20224;-57
2021/03/26 03:51:52;;;;;;;34.70;20.10;;;6.50;99.90;;;;;;4913511;29;20252;-60
2021/03/26 03:54:27;;;;;;;38.70;20.47;;;6.50;99.90;;;;;;4912079;29;20213;-60
2021/03/26 03:57:02;;;;;;;38.87;19.63;;;6.50;99.90;;;;;;4915787;29;20248;-60
2021/03/26 03:59:37;;;;;;;40.20;21.47;;;6.50;99.90;;;;;;4915438;29;20204;-62
2021/03/26 04:02:11;;;;;;;42.90;20.43;;;6.40;99.90;;;;;;4912780;29;20211;-60
2021/03/26 04:04:44;;;;;;;38.30;19.77;;;6.30;99.90;;;;;;4911991;29;20667;-60
2021/03/26 04:07:17;;;;;;;43.13;21.57;;;6.10;99.90;;;;;;4910577;29;20633;-60
2021/03/26 04:09:55;;;;;;;38.30;20.57;;;6.10;99.90;;;;;;4910561;29;20217;-60
2021/03/26 04:12:29;;;;;;;39.67;22.13;;;6.00;99.90;;;;;;4914097;29;20201;-60
2021/03/26 04:15:05;;;;;;;39.60;21.47;;;5.90;99.90;;;;;;4916063;29;20213;-61
2021/03/26 04:17:39;;;;;;;41.30;21.30;;;5.90;99.90;;;;;;4912274;29;20284;-62
2021/03/26 04:20:12;;;;;;;44.40;21.97;;;5.80;99.90;;;;;;4912121;29;20309;-60
2021/03/26 04:22:46;;;;;;;42.93;21.90;;;5.80;99.90;;;;;;4913813;29;20206;-60
2021/03/26 04:25:19;;;;;;;44.80;23.00;;;5.70;99.90;;;;;;4924669;29;20190;-61
2021/03/26 04:27:55;;;;;;;46.03;22.90;;;5.60;99.90;;;;;;4919753;29;20288;-60
2021/03/26 04:30:26;;;;;;;44.40;23.37;;;5.60;99.90;;;;;;4911742;29;20656;-60
2021/03/26 04:32:55;;;;;;;44.17;23.07;;;5.60;99.90;;;;;;4912264;29;20282;-60
2021/03/26 04:35:25;;;;;;;44.37;21.97;;;5.60;99.90;;;;;;4912270;29;20222;-60
2021/03/26 04:38:02;;;;;;;46.73;22.97;;;5.60;99.90;;;;;;4919098;29;20391;-60
2021/03/26 04:40:34;;;;;;;43.70;22.20;;;5.50;99.90;;;;;;4911245;29;20205;-60
2021/03/26 04:43:12;;;;;;;46.80;23.27;;;5.50;99.90;;;;;;4916407;29;20623;-57
2021/03/26 04:45:46;;;;;;;47.10;23.00;;;5.50;99.90;;;;;;4909852;29;20209;-61
2021/03/26 04:48:21;;;;;;;43.43;23.43;;;5.40;99.90;;;;;;4913184;29;20194;-60
2021/03/26 04:50:59;;;;;;;45.07;24.40;;;5.30;99.90;;;;;;4914225;29;20685;-60
2021/03/26 04:53:34;;;;;;;46.27;22.10;;;5.30;99.90;;;;;;4911391;29;20208;-60
2021/03/26 04:56:06;;;;;;;43.63;22.87;;;5.40;99.90;;;;;;4910987;29;20688;-58
2021/03/26 04:58:38;;;;;;;44.70;23.23;;;5.40;99.90;;;;;;4913257;29;20236;-60
2021/03/26 05:01:12;;;;;;;46.07;23.37;;;5.30;99.90;;;;;;4912288;29;20568;-60
2021/03/26 05:03:42;;;;;;;43.93;23.23;;;5.30;99.90;;;;;;4910762;29;20201;-60
2021/03/26 05:06:14;;;;;;;48.67;23.47;;;5.30;99.90;;;;;;4911006;29;20216;-60
2021/03/26 05:08:48;;;;;;;49.10;23.50;;;5.30;99.90;;;;;;4925921;29;20197;-60
2021/03/26 05:11:21;;;;;;;47.23;23.53;;;5.30;99.90;;;;;;4909429;29;20236;-60
2021/03/26 05:13:52;;;;;;;44.80;23.13;;;5.30;99.90;;;;;;4911475;29;20201;-60
2021/03/26 05:16:31;;;;;;;49.57;22.93;;;5.40;99.90;;;;;;4911811;29;20321;-60
2021/03/26 05:19:07;;;;;;;47.80;23.17;;;5.40;99.90;;;;;;4909260;29;20264;-60
2021/03/26 05:21:41;;;;;;;45.83;23.23;;;5.40;99.90;;;;;;4893044;29;20288;-60
2021/03/26 05:24:17;;;;;;;45.23;23.03;;;5.50;99.90;;;;;;4915420;29;20232;-60
2021/03/26 05:26:44;;;;;;;46.93;22.60;;;5.50;99.90;;;;;;4912698;29;20231;-60
2021/03/26 05:29:13;;;;;;;50.53;22.30;;;5.50;99.90;;;;;;4912091;29;20265;-61
2021/03/26 05:31:51;;;;;;;51.67;22.40;;;5.40;99.90;;;;;;4918628;29;20228;-60
2021/03/26 05:34:23;;;;;;;47.87;23.37;;;5.50;99.90;;;;;;4910985;29;20194;-60
2021/03/26 05:37:03;;;;;;;46.23;22.17;;;5.50;99.90;;;;;;4913550;29;20973;-62
2021/03/26 05:39:35;;;;;;;43.00;21.07;;;5.50;99.90;;;;;;4912395;29;20288;-61
2021/03/26 05:42:32;;;;;;;44.33;22.17;;;5.50;99.90;;;;;;4909825;29;20201;-62
2021/03/26 05:45:38;;;;;;;46.00;21.03;;;5.50;99.90;;;;;;4907991;29;20196;-60
2021/03/26 05:48:25;;;;;;;40.97;20.93;;;5.60;99.90;;;;;;4881582;29;20212;-62
2021/03/26 05:51:02;;;;;;;44.80;22.07;;;5.60;99.90;;;;;;4908928;29;20200;-62
2021/03/26 05:53:38;;;;;;;45.73;21.93;;;5.70;99.90;;;;;;4910355;29;20568;-62
2021/03/26 05:56:19;;;;;;;41.70;21.10;;;5.70;99.90;;;;;;4910807;29;20312;-62
2021/03/26 05:59:01;;;;;;;41.80;21.43;;;5.70;99.90;;;;;;4912687;29;20197;-62
2021/03/26 06:02:00;;;;;;;39.83;20.77;;;5.70;99.90;;;;;;4905425;29;20553;-62
2021/03/26 06:05:00;;;;;;;38.67;20.30;;;5.80;99.90;;;;;;4908150;29;20691;-61
2021/03/26 06:08:05;;;;;;;40.93;19.23;;;6.00;99.90;;;;;;4912602;29;20304;-61
2021/03/26 06:10:42;;;;;;;45.10;19.80;;;6.00;99.90;;;;;;4908406;29;20201;-62
2021/03/26 06:13:43;;;;;;;39.63;18.83;;;6.10;99.90;;;;;;4904236;29;20276;-61
2021/03/26 06:16:31;;;;;;;39.80;18.90;;;6.20;99.90;;;;;;4905017;29;20244;-62
2021/03/26 06:19:39;;;;;;;39.80;19.07;;;6.30;99.90;;;;;;4906500;29;20201;-62
2021/03/26 06:22:23;;;;;;;36.20;18.83;;;6.40;99.90;;;;;;4912329;29;20568;-61
2021/03/26 06:25:17;;;;;;;38.97;18.97;;;6.50;99.90;;;;;;4909766;29;20614;-61
2021/03/26 06:27:59;;;;;;;38.60;18.93;;;6.50;99.90;;;;;;4912355;29;20193;-62
2021/03/26 06:30:32;;;;;;;42.53;18.00;;;6.70;99.90;;;;;;4911847;29;20370;-62
2021/03/26 06:33:26;;;;;;;30.93;17.33;;;6.80;99.90;;;;;;4909975;29;20204;-62
2021/03/26 06:36:32;;;;;;;33.00;18.10;;;7.00;99.90;;;;;;4909980;29;20209;-61
2021/03/26 06:39:30;;;;;;;32.20;17.50;;;7.10;99.90;;;;;;4891862;29;20205;-62
2021/03/26 06:42:15;;;;;;;38.10;17.90;;;7.20;99.90;;;;;;4909299;29;20205;-62
2021/03/26 06:45:07;;;;;;;29.00;16.77;;;7.30;99.90;;;;;;4910069;29;20200;-61
2021/03/26 06:47:50;;;;;;;39.53;17.40;;;7.30;99.90;;;;;;4909748;29;20241;-61
2021/03/26 06:50:34;;;;;;;33.57;16.77;;;7.20;99.90;;;;;;4910554;29;20209;-62
2021/03/26 06:53:10;;;;;;;33.13;16.23;;;7.20;99.90;;;;;;4908112;29;20204;-61
2021/03/26 06:55:49;;;;;;;30.40;16.80;;;7.40;99.90;;;;;;4902936;29;20213;-61
2021/03/26 06:58:49;;;;;;;32.00;17.13;;;7.60;99.90;;;;;;4898323;29;20185;-61
2021/03/26 07:01:31;;;;;;;31.27;16.60;;;7.80;99.90;;;;;;4912820;29;20202;-61
2021/03/26 07:04:48;;;;;;;34.13;17.10;;;7.80;99.90;;;;;;4917238;29;20205;-61
2021/03/26 07:07:53;;;;;;;34.80;17.30;;;7.90;99.90;;;;;;4913711;29;20208;-61
2021/03/26 07:10:35;;;;;;;28.27;15.60;;;8.10;99.90;;;;;;4924596;29;20284;-62
2021/03/26 07:13:55;;;;;;;27.73;16.33;;;8.40;99.90;;;;;;4912574;29;20292;-63
2021/03/26 07:16:45;;;;;;;28.70;16.03;;;8.70;99.90;;;;;;4910649;29;20256;-63
2021/03/26 07:19:33;;;;;;;28.23;14.53;;;8.80;99.90;;;;;;4914961;29;20212;-63
2021/03/26 07:22:13;;;;;;;27.53;15.53;;;8.80;99.90;;;;;;4915727;29;20204;-63
2021/03/26 07:25:08;;;;;;;31.67;15.27;;;9.00;99.90;;;;;;4921710;29;20715;-62
2021/03/26 07:27:55;;;;;;;29.03;14.80;;;9.20;99.90;;;;;;4926251;29;20198;-62
2021/03/26 07:30:37;;;;;;;28.80;15.10;;;9.10;99.90;;;;;;4929005;29;20220;-62
2021/03/26 07:33:22;;;;;;;26.57;14.47;;;8.90;99.90;;;;;;4913681;29;20296;-61
2021/03/26 07:36:24;;;;;;;26.30;13.73;;;8.60;99.90;;;;;;4909176;29;20228;-60
2021/03/26 07:39:05;;;;;;;25.27;14.83;;;8.50;99.90;;;;;;4898241;29;20237;-62
2021/03/26 07:41:46;;;;;;;25.80;14.60;;;8.40;99.90;;;;;;4910491;29;20744;-62
2021/03/26 07:44:37;;;;;;;27.23;13.50;;;8.30;99.90;;;;;;4916299;29;20703;-62
2021/03/26 07:47:23;;;;;;;27.77;13.30;;;8.40;99.90;;;;;;4898863;29;20224;-62
2021/03/26 07:50:30;;;;;;;28.70;13.20;;;8.40;99.90;;;;;;4919977;29;20250;-63
2021/03/26 07:53:11;;;;;;;23.40;14.07;;;8.40;99.90;;;;;;4922304;29;20200;-62
2021/03/26 07:55:42;;;;;;;25.30;13.17;;;8.50;99.90;;;;;;4914642;29;20217;-62
2021/03/26 07:58:47;;;;;;;22.50;12.47;;;8.50;99.90;;;;;;4904230;29;20221;-62
2021/03/26 08:01:25;;;;;;;23.37;13.73;;;8.60;99.90;;;;;;4910972;29;20233;-62
2021/03/26 08:04:13;;;;;;;23.87;13.33;;;8.60;99.90;;;;;;4915241;29;20232;-62
2021/03/26 08:07:17;;;;;;;24.17;12.10;;;8.60;99.90;;;;;;4913412;29;20216;-62
2021/03/26 08:10:34;;;;;;;19.77;11.87;;;8.70;99.90;;;;;;4908129;29;20653;-62
2021/03/26 08:13:28;;;;;;;24.07;12.00;;;8.70;99.90;;;;;;4846383;29;20206;-63
2021/03/26 08:16:14;;;;;;;17.90;10.27;;;8.80;99.90;;;;;;4914580;29;20706;-62
2021/03/26 08:18:55;;;;;;;24.33;12.70;;;8.90;99.90;;;;;;4923706;29;20564;-62
2021/03/26 08:21:30;;;;;;;21.90;10.87;;;8.90;99.90;;;;;;4911989;29;20203;-62
2021/03/26 08:24:29;;;;;;;19.93;10.13;;;9.00;99.90;;;;;;4913687;29;20197;-62
2021/03/26 08:27:08;;;;;;;16.23;10.37;;;9.20;99.90;;;;;;4918528;29;20229;-60
2021/03/26 08:29:42;;;;;;;18.07;10.47;;;9.40;99.90;;;;;;4908415;29;20732;-62
2021/03/26 08:32:28;;;;;;;23.50;10.93;;;9.60;99.90;;;;;;4913837;29;20198;-62
2021/03/26 08:35:30;;;;;;;13.87;8.87;;;9.80;99.90;;;;;;4909553;29;20295;-62
2021/03/26 08:38:11;;;;;;;18.07;9.43;;;10.00;99.90;;;;;;4909918;29;20350;-62
2021/03/26 08:40:53;;;;;;;14.63;9.67;;;10.20;99.90;;;;;;4915672;29;20838;-62
2021/03/26 08:43:22;;;;;;;15.67;10.60;;;10.30;99.90;;;;;;4910985;29;20270;-62
2021/03/26 08:45:57;;;;;;;15.27;9.57;;;10.40;99.90;;;;;;4910971;29;20222;-62
2021/03/26 08:48:34;;;;;;;17.30;10.07;;;10.60;99.90;;;;;;4920229;29;20197;-62
2021/03/26 08:51:16;;;;;;;12.73;8.87;;;10.70;99.90;;;;;;4910895;29;20732;-62
2021/03/26 08:53:57;;;;;;;12.97;8.53;;;11.00;99.90;;;;;;4913088;29;20201;-62
2021/03/26 08:56:44;;;;;;;15.93;8.97;;;11.10;99.90;;;;;;4912915;29;20883;-62
2021/03/26 08:59:41;;;;;;;15.03;8.70;;;11.10;99.90;;;;;;4915849;29;20220;-61
2021/03/26 09:02:29;;;;;;;18.20;9.63;;;11.20;99.90;;;;;;4915457;29;20210;-62
2021/03/26 09:05:15;;;;;;;15.70;9.27;;;11.10;99.90;;;;;;4926886;29;20201;-62
2021/03/26 09:08:04;;;;;;;13.73;8.47;;;11.10;99.90;;;;;;4916304;29;20265;-62
2021/03/26 09:11:14;;;;;;;16.43;9.00;;;11.10;99.90;;;;;;4910785;29;20217;-62
2021/03/26 09:13:56;;;;;;;13.53;8.30;;;11.20;99.90;;;;;;4908619;29;20404;-62
2021/03/26 09:16:27;;;;;;;13.17;7.53;;;11.50;99.90;;;;;;4910032;29;20280;-62
2021/03/26 09:19:02;;;;;;;11.60;8.47;;;11.70;99.90;;;;;;4910897;29;20208;-62
2021/03/26 09:21:49;;;;;;;13.53;8.00;;;11.70;99.90;;;;;;4910868;29;20665;-62
2021/03/26 09:24:43;;;;;;;22.77;7.50;;;11.90;99.90;;;;;;4903948;29;20241;-62
2021/03/26 09:27:20;;;;;;;15.33;7.33;;;12.20;99.90;;;;;;4882743;29;20759;-63
2021/03/26 09:30:03;;;;;;;14.73;6.70;;;12.40;99.90;;;;;;4912439;29;20248;-62
2021/03/26 09:32:32;;;;;;;9.90;5.83;;;12.50;99.90;;;;;;4908936;29;20273;-62
2021/03/26 09:35:09;;;;;;;9.60;5.47;;;12.90;99.90;;;;;;4912460;29;20715;-62
2021/03/26 09:37:42;;;;;;;10.57;5.57;;;13.10;99.90;;;;;;4914230;29;20292;-61
2021/03/26 09:40:20;;;;;;;13.90;5.73;;;13.20;99.90;;;;;;4912224;29;20220;-62
2021/03/26 09:42:53;;;;;;;11.73;6.20;;;12.90;99.90;;;;;;4909505;29;20205;-63
2021/03/26 09:45:31;;;;;;;10.07;5.37;;;13.00;99.90;;;;;;4910299;29;20221;-62
2021/03/26 09:48:40;;;;;;;9.17;4.97;;;13.80;99.90;;;;;;4910678;29;20201;-62
2021/03/26 09:51:13;;;;;;;11.17;5.30;;;14.60;99.90;;;;;;4895439;29;20913;-63
2021/03/26 09:53:44;;;;;;;12.00;5.63;;;15.20;99.90;;;;;;4910803;29;20201;-63
2021/03/26 09:56:25;;;;;;;5.27;4.47;;;15.60;99.90;;;;;;4911770;29;20209;-62
2021/03/26 09:59:00;;;;;;;10.07;5.07;;;15.90;99.90;;;;;;4915001;29;20833;-62
2021/03/26 10:01:37;;;;;;;9.57;4.77;;;15.90;99.90;;;;;;4911823;29;20800;-62
2021/03/26 10:04:10;;;;;;;7.80;4.80;;;15.90;99.90;;;;;;4910959;29;20669;-62
2021/03/26 10:07:05;;;;;;;9.17;4.00;;;16.30;99.90;;;;;;4912563;29;20197;-63
2021/03/26 10:09:38;;;;;;;9.20;4.40;;;16.40;99.90;;;;;;4911975;29;20201;-63
2021/03/26 10:12:14;;;;;;;7.40;3.70;;;16.70;99.90;;;;;;4910533;29;20207;-63
2021/03/26 10:14:57;;;;;;;9.67;3.33;;;16.90;99.90;;;;;;4911360;29;20582;-63
2021/03/26 10:18:02;;;;;;;3.63;3.33;;;16.90;99.90;;;;;;4912705;29;20190;-64
2021/03/26 10:20:38;;;;;;;5.10;3.40;;;17.40;99.90;;;;;;4891290;29;20297;-63
2021/03/26 10:23:23;;;;;;;4.80;2.83;;;17.20;99.90;;;;;;4911135;29;20205;-64
2021/03/26 10:26:03;;;;;;;5.27;2.80;;;17.50;99.90;;;;;;4925120;29;20212;-63
2021/03/26 10:28:49;;;;;;;9.37;2.90;;;17.50;99.90;;;;;;4917654;29;20682;-62
2021/03/26 10:31:26;;;;;;;5.67;2.70;;;16.90;99.90;;;;;;4911780;29;20200;-62
2021/03/26 10:33:56;;;;;;;7.33;3.00;;;16.50;99.90;;;;;;4912400;29;20198;-63
2021/03/26 10:36:29;;;;;;;5.23;3.47;;;16.50;99.90;;;;;;4926125;29;20264;-62
2021/03/26 10:39:05;;;;;;;5.77;3.00;;;17.20;99.90;;;;;;4922387;29;20299;-62
2021/03/26 10:41:38;;;;;;;6.27;2.90;;;17.50;99.90;;;;;;4915033;29;20293;-63
2021/03/26 10:44:18;;;;;;;4.53;2.70;;;16.60;99.90;;;;;;4917750;29;20205;-62
2021/03/26 10:46:51;;;;;;;4.97;2.70;;;16.60;99.90;;;;;;4916734;29;20203;-63
2021/03/26 10:49:22;;;;;;;2.97;2.70;;;16.50;99.90;;;;;;4917500;29;20192;-62
2021/03/26 10:51:53;;;;;;;4.83;2.63;;;17.00;99.90;;;;;;4912647;29;20216;-62
2021/03/26 10:54:30;;;;;;;7.60;2.73;;;17.30;99.90;;;;;;4913110;29;20201;-62
2021/03/26 10:57:11;;;;;;;5.30;2.70;;;17.40;99.90;;;;;;4903974;29;20239;-62
2021/03/26 10:59:45;;;;;;;3.80;2.97;;;17.10;99.90;;;;;;4908222;29;20272;-62
2021/03/26 11:02:47;;;;;;;2.60;2.40;;;17.00;99.90;;;;;;4911540;29;20193;-63
2021/03/26 11:05:24;;;;;;;5.73;2.83;;;17.40;99.90;;;;;;4902321;29;20213;-63
2021/03/26 11:08:24;;;;;;;3.13;2.67;;;16.60;99.90;;;;;;4909818;29;20202;-63
2021/03/26 11:11:01;;;;;;;7.17;3.07;;;16.20;99.90;;;;;;4909310;29;20230;-63
2021/03/26 11:13:40;;;;;;;2.67;2.53;;;15.70;99.90;;;;;;4905312;29;20676;-62
2021/03/26 11:16:20;;;;;;;6.40;2.90;;;15.50;99.90;;;;;;4911573;29;20276;-62
2021/03/26 11:18:57;;;;;;;7.20;3.03;;;15.60;99.90;;;;;;4913552;29;20293;-62
2021/03/26 11:21:34;;;;;;;6.73;3.00;;;15.30;99.90;;;;;;4910919;29;20201;-61
2021/03/26 11:24:07;;;;;;;5.67;2.90;;;14.80;99.90;;;;;;4915611;29;20205;-63
2021/03/26 11:26:51;;;;;;;5.13;2.90;;;14.80;99.90;;;;;;4910554;29;20653;-64
2021/03/26 11:29:24;;;;;;;3.20;2.90;;;14.70;99.90;;;;;;4917496;29;20244;-62
2021/03/26 11:31:57;;;;;;;3.17;2.80;;;14.20;99.90;;;;;;4913209;29;20197;-62
2021/03/26 11:34:35;;;;;;;4.33;2.93;;;14.20;99.90;;;;;;4910753;29;20205;-62
2021/03/26 11:37:13;;;;;;;5.27;2.40;;;14.30;99.90;;;;;;4913915;29;20215;-62
2021/03/26 11:39:50;;;;;;;2.87;2.53;;;14.40;99.90;;;;;;4913576;29;20219;-62
2021/03/26 11:42:35;;;;;;;4.60;2.20;;;14.50;99.90;;;;;;4918044;29;20622;-62
2021/03/26 11:45:18;;;;;;;6.47;2.90;;;14.30;99.90;;;;;;4908623;29;20209;-62
2021/03/26 11:48:03;;;;;;;3.73;3.10;;;14.30;99.90;;;;;;4910477;29;20768;-62
2021/03/26 11:50:35;;;;;;;2.40;2.20;;;14.40;99.90;;;;;;4913806;29;20787;-59
2021/03/26 11:53:31;;;;;;;2.90;2.57;;;14.70;99.90;;;;;;4908102;29;20252;-63
2021/03/26 11:56:11;;;;;;;6.93;3.00;;;15.10;99.90;;;;;;4914207;29;20217;-63
2021/03/26 11:58:55;;;;;;;3.10;2.53;;;14.90;99.90;;;;;;4931484;29;20273;-63
2021/03/26 12:01:28;;;;;;;3.57;2.53;;;14.80;99.90;;;;;;4910676;29;20201;-60
2021/03/26 12:04:05;;;;;;;3.33;2.60;;;14.70;99.90;;;;;;4910715;29;20826;-62
2021/03/26 12:06:38;;;;;;;2.80;2.60;;;14.90;99.90;;;;;;4914539;29;20200;-62
2021/03/26 12:09:13;;;;;;;3.97;2.30;;;14.70;99.90;;;;;;4915036;29;20201;-61
2021/03/26 12:12:03;;;;;;;2.13;2.03;;;14.70;99.90;;;;;;4919951;29;20240;-62
2021/03/26 12:14:40;;;;;;;2.60;2.40;;;14.40;99.90;;;;;;4910836;29;20211;-62
2021/03/26 12:17:25;;;;;;;4.63;2.40;;;14.20;99.90;;;;;;4913764;29;20744;-62
2021/03/26 12:19:59;;;;;;;2.17;2.07;;;14.10;99.90;;;;;;4914970;29;20249;-62
2021/03/26 12:22:34;;;;;;;4.70;2.60;;;14.00;99.90;;;;;;4911864;29;20206;-62
2021/03/26 12:25:11;;;;;;;2.30;2.20;;;14.00;99.90;;;;;;4914289;29;20193;-61
2021/03/26 12:27:43;;;;;;;3.33;2.53;;;14.00;99.90;;;;;;4911908;29;20199;-62
2021/03/26 12:30:14;;;;;;;4.90;2.53;;;13.90;99.90;;;;;;4913095;29;20233;-62
2021/03/26 12:32:46;;;;;;;2.60;2.40;;;13.90;99.90;;;;;;4916681;29;20303;-60
2021/03/26 12:35:20;;;;;;;7.10;3.13;;;13.90;99.90;;;;;;4913590;29;20289;-62
2021/03/26 12:37:53;;;;;;;3.00;2.77;;;14.00;99.90;;;;;;4913735;29;20249;-62
2021/03/26 12:40:34;;;;;;;5.33;3.13;;;14.00;99.90;;;;;;4908202;29;20812;-61
2021/03/26 12:43:07;;;;;;;4.47;3.10;;;13.90;99.90;;;;;;4914205;29;20306;-62
2021/03/26 12:45:39;;;;;;;5.17;3.10;;;13.90;99.90;;;;;;4916497;29;20258;-62
2021/03/26 12:48:15;;;;;;;3.30;3.00;;;14.10;99.90;;;;;;4912102;29;20593;-62
2021/03/26 12:50:48;;;;;;;3.53;3.23;;;14.30;99.90;;;;;;4919763;29;20198;-62
2021/03/26 12:53:22;;;;;;;3.20;2.90;;;14.10;99.90;;;;;;4912456;29;20249;-63
2021/03/26 12:55:59;;;;;;;3.23;2.87;;;14.10;99.90;;;;;;4913017;29;20224;-62
2021/03/26 12:58:53;;;;;;;8.97;3.37;;;14.30;99.90;;;;;;4907798;29;20233;-63
2021/03/26 13:01:23;;;;;;;5.17;3.20;;;14.50;99.90;;;;;;4908477;29;20280;-62
2021/03/26 13:04:00;;;;;;;3.70;2.93;;;14.30;99.90;;;;;;4911051;29;20205;-62
2021/03/26 13:06:34;;;;;;;3.27;2.93;;;14.10;99.90;;;;;;4911664;29;20205;-62
2021/03/26 13:09:23;;;;;;;3.63;3.23;;;14.10;99.90;;;;;;4913943;29;20230;-62
2021/03/26 13:11:57;;;;;;;3.70;3.40;;;14.10;99.90;;;;;;4925342;29;20229;-62
2021/03/26 13:14:30;;;;;;;5.20;3.33;;;14.30;99.90;;;;;;4911692;29;20291;-56
2021/03/26 13:16:58;;;;;;;4.30;3.13;;;14.60;99.90;;;;;;4914860;29;20265;-62
2021/03/26 13:19:30;;;;;;;3.30;3.00;;;14.50;99.90;;;;;;4909105;29;20205;-60
2021/03/26 13:22:25;;;;;;;5.30;3.37;;;14.40;99.90;;;;;;4913086;29;20269;-62
2021/03/26 13:25:03;;;;;;;3.87;3.20;;;14.20;99.90;;;;;;4907950;29;20214;-62
2021/03/26 13:27:48;;;;;;;6.23;3.47;;;14.30;99.90;;;;;;4912378;29;20612;-62
2021/03/26 13:30:40;;;;;;;5.37;3.70;;;14.60;99.90;;;;;;4912614;29;20219;-62
2021/03/26 13:33:19;;;;;;;4.03;3.47;;;14.50;99.90;;;;;;4911293;29;20677;-62
2021/03/26 13:35:58;;;;;;;6.93;3.90;;;14.60;99.90;;;;;;4907816;29;20205;-64